Terminal Aerodrome Forecast
Issued by NWS

Home | Current Version | Previous Version | Text Only | Print | Product List | Glossary On
Versions: 1 2 3 4 5 6 7 8 9 10 11
000
FTUS41 KBTV 231124
TAFRUT
TAF
KRUT 231124Z 2312/2412 VRB03KT P6SM FEW050 SCT250
     FM231700 31007KT P6SM VCSH SCT090 BKN110
     FM231900 31010G18KT 4SM SHRA BR BKN045 BKN090
     FM232200 32008KT P6SM VCSH SCT070 BKN120
     FM240300 00000KT P6SM FEW250
      AMD LTD TO CLD VIS AND WIND=

USA.gov is the U.S. government's official web portal to all federal, state and local government web resources and services.